createdAt,value
2022-10-30T00:00:07.010Z,16.43
2022-10-30T00:01:07.016Z,16.47
2022-10-30T00:02:07.153Z,16.38
2022-10-30T00:03:07.091Z,16.38
2022-10-30T00:04:07.006Z,16.35
2022-10-30T00:05:07.013Z,16.31
2022-10-30T00:06:07.113Z,16.28
2022-10-30T00:07:07.002Z,16.29
2022-10-30T00:08:07.018Z,16.26
2022-10-30T00:09:07.011Z,16.29
2022-10-30T00:10:06.995Z,16.33
2022-10-30T00:11:06.997Z,16.24
2022-10-30T00:12:06.995Z,16.23
2022-10-30T00:13:07.005Z,16.32
2022-10-30T00:14:07.003Z,16.31
2022-10-30T00:15:06.995Z,16.28
2022-10-30T00:16:07.001Z,16.32
2022-10-30T00:17:06.990Z,16.23
2022-10-30T00:18:07.000Z,16.20
2022-10-30T00:19:06.998Z,16.23
2022-10-30T00:20:06.995Z,16.21
2022-10-30T00:21:06.996Z,16.17
2022-10-30T00:22:08.030Z,16.15
2022-10-30T00:23:06.974Z,16.09
2022-10-30T00:24:06.989Z,16.16
2022-10-30T00:25:07.016Z,16.09
2022-10-30T00:26:06.973Z,16.05
2022-10-30T00:27:06.968Z,16.08
2022-10-30T00:28:06.977Z,16.10
2022-10-30T00:29:06.969Z,16.09
2022-10-30T00:30:06.969Z,16.08
2022-10-30T00:31:06.968Z,16.08
2022-10-30T00:32:06.977Z,16.02
2022-10-30T00:33:06.976Z,16.08
2022-10-30T00:34:07.003Z,16.01
2022-10-30T00:35:06.959Z,16.04
2022-10-30T00:36:06.961Z,16.01
2022-10-30T00:37:06.953Z,15.95
2022-10-30T00:38:06.957Z,15.94
2022-10-30T00:39:06.962Z,15.94
2022-10-30T00:40:06.975Z,15.97
2022-10-30T00:41:06.947Z,15.98
2022-10-30T00:42:06.945Z,15.91
2022-10-30T00:43:06.954Z,15.97
2022-10-30T00:44:06.968Z,15.86
2022-10-30T00:45:06.949Z,15.90
2022-10-30T00:46:06.945Z,15.90
2022-10-30T00:47:06.992Z,15.95
2022-10-30T00:48:06.936Z,15.98
2022-10-30T00:49:06.934Z,15.88
2022-10-30T00:50:06.944Z,15.86
2022-10-30T00:51:06.927Z,15.92
2022-10-30T00:52:06.936Z,15.90
2022-10-30T00:53:06.933Z,15.83
2022-10-30T00:54:06.930Z,15.94
2022-10-30T00:55:06.947Z,15.88
2022-10-30T00:56:06.942Z,15.84
2022-10-30T00:57:06.940Z,15.91
2022-10-30T00:58:06.922Z,15.83
2022-10-30T00:59:06.920Z,15.83
2022-10-30T01:00:06.915Z,15.83
2022-10-30T01:01:06.952Z,15.82
2022-10-30T01:02:07.036Z,15.86
2022-10-30T01:03:06.915Z,15.79
2022-10-30T01:04:06.905Z,15.79
2022-10-30T01:05:06.944Z,15.79
2022-10-30T01:06:06.906Z,15.80
2022-10-30T01:07:06.917Z,15.82
2022-10-30T01:08:06.914Z,15.83
2022-10-30T01:09:07.003Z,15.79
2022-10-30T01:10:06.929Z,15.80
2022-10-30T01:11:06.902Z,15.79
2022-10-30T01:12:06.908Z,15.79
2022-10-30T01:13:06.886Z,15.82
2022-10-30T01:14:06.896Z,15.83
2022-10-30T01:15:06.887Z,15.86
2022-10-30T01:16:06.879Z,15.73
2022-10-30T01:17:06.883Z,15.77
2022-10-30T01:18:06.879Z,15.88
2022-10-30T01:19:06.906Z,15.80
2022-10-30T01:20:06.885Z,15.75
2022-10-30T01:21:06.876Z,15.76
2022-10-30T01:22:06.881Z,15.79
2022-10-30T01:23:06.877Z,15.76
2022-10-30T01:24:06.889Z,15.75
2022-10-30T01:25:06.885Z,15.75
2022-10-30T01:26:06.869Z,15.76
2022-10-30T01:27:06.863Z,15.76
2022-10-30T01:28:06.875Z,15.80
2022-10-30T01:29:06.863Z,15.76
2022-10-30T01:30:06.877Z,15.75
2022-10-30T01:31:06.856Z,15.80
2022-10-30T01:32:06.863Z,15.82
2022-10-30T01:33:06.866Z,15.82
2022-10-30T01:34:06.866Z,15.76
2022-10-30T01:35:06.866Z,15.76
2022-10-30T01:36:06.866Z,15.73
2022-10-30T01:37:06.855Z,15.79
2022-10-30T01:38:06.846Z,15.72
2022-10-30T01:39:06.854Z,15.77
2022-10-30T01:40:06.833Z,15.73
2022-10-30T01:41:06.855Z,15.65
2022-10-30T01:42:06.844Z,15.67
2022-10-30T01:43:06.860Z,15.72
2022-10-30T01:44:06.871Z,15.64
2022-10-30T01:45:06.835Z,15.70
2022-10-30T01:46:06.832Z,15.73
2022-10-30T01:47:06.832Z,15.64
2022-10-30T01:48:06.836Z,15.68
2022-10-30T01:49:06.834Z,15.58
2022-10-30T01:50:06.830Z,15.65
2022-10-30T01:51:06.859Z,15.65
2022-10-30T01:52:06.823Z,15.61
2022-10-30T01:53:06.822Z,15.64
2022-10-30T01:54:06.815Z,15.62
2022-10-30T01:55:06.808Z,15.70
2022-10-30T01:56:06.832Z,15.70
2022-10-30T01:57:06.818Z,15.62
2022-10-30T01:58:06.819Z,15.64
2022-10-30T01:59:06.814Z,15.58
2022-10-30T02:00:06.799Z,15.62
2022-10-30T02:01:06.828Z,15.57
2022-10-30T02:02:06.973Z,15.59
2022-10-30T02:03:06.798Z,15.58
2022-10-30T02:04:06.798Z,15.57
2022-10-30T02:05:06.792Z,15.57
2022-10-30T02:06:06.837Z,15.59
2022-10-30T02:07:06.791Z,15.57
2022-10-30T02:08:06.797Z,15.61
2022-10-30T02:09:06.783Z,15.62
2022-10-30T02:10:06.794Z,15.64
2022-10-30T02:11:06.790Z,15.59
2022-10-30T02:12:06.797Z,15.62
2022-10-30T02:13:06.801Z,15.59
2022-10-30T02:14:06.776Z,15.59
2022-10-30T02:15:06.781Z,15.55
2022-10-30T02:16:06.798Z,15.61
2022-10-30T02:17:06.818Z,15.64
2022-10-30T02:18:06.771Z,15.55
2022-10-30T02:19:06.767Z,15.58
2022-10-30T02:20:06.759Z,15.59
2022-10-30T02:21:06.767Z,15.49
2022-10-30T02:22:06.792Z,15.57
2022-10-30T02:23:07.334Z,15.59
2022-10-30T02:24:06.751Z,15.59
2022-10-30T02:25:06.764Z,15.54
2022-10-30T02:26:06.758Z,15.49
2022-10-30T02:27:06.764Z,15.49
2022-10-30T02:28:06.745Z,15.55
2022-10-30T02:29:06.740Z,15.49
2022-10-30T02:30:06.749Z,15.47
2022-10-30T02:31:06.740Z,15.47
2022-10-30T02:32:06.740Z,15.44
2022-10-30T02:33:06.777Z,15.44
2022-10-30T02:34:06.738Z,15.37
2022-10-30T02:35:06.743Z,15.40
2022-10-30T02:36:06.724Z,15.43
2022-10-30T02:37:06.727Z,15.44
2022-10-30T02:38:06.716Z,15.37
2022-10-30T02:39:06.723Z,15.49
2022-10-30T02:40:06.739Z,15.52
2022-10-30T02:41:06.722Z,15.44
2022-10-30T02:42:06.731Z,15.51
2022-10-30T02:43:06.706Z,15.39
2022-10-30T02:44:06.739Z,15.44
2022-10-30T02:45:06.714Z,15.46
2022-10-30T02:46:06.703Z,15.46
2022-10-30T02:47:06.697Z,15.37
2022-10-30T02:48:06.811Z,15.35
2022-10-30T02:49:06.707Z,15.46
2022-10-30T02:50:06.690Z,15.35
2022-10-30T02:51:06.707Z,15.35
2022-10-30T02:52:06.687Z,15.47
2022-10-30T02:53:06.697Z,15.36
2022-10-30T02:54:06.693Z,15.47
2022-10-30T02:55:06.691Z,15.36
2022-10-30T02:56:06.711Z,15.36
2022-10-30T02:57:06.686Z,15.39
2022-10-30T02:58:06.680Z,15.36
2022-10-30T02:59:06.673Z,15.42
2022-10-30T03:00:06.675Z,15.31
2022-10-30T03:01:06.695Z,15.36
2022-10-30T03:02:06.722Z,15.39
2022-10-30T03:03:06.670Z,15.40
2022-10-30T03:04:06.682Z,15.39
2022-10-30T03:05:06.670Z,15.35
2022-10-30T03:06:06.664Z,15.36
2022-10-30T03:07:06.683Z,15.36
2022-10-30T03:08:06.663Z,15.29
2022-10-30T03:09:06.656Z,15.40
2022-10-30T03:10:06.794Z,15.35
2022-10-30T03:11:06.654Z,15.33
2022-10-30T03:12:06.645Z,15.36
2022-10-30T03:13:06.657Z,15.39
2022-10-30T03:14:06.656Z,15.36
2022-10-30T03:15:06.641Z,15.40
2022-10-30T03:16:06.694Z,15.39
2022-10-30T03:17:06.634Z,15.35
2022-10-30T03:18:06.640Z,15.35
2022-10-30T03:19:06.630Z,15.42
2022-10-30T03:20:06.633Z,15.35
2022-10-30T03:21:06.635Z,15.36
2022-10-30T03:22:06.669Z,15.35
2022-10-30T03:23:06.621Z,15.36
2022-10-30T03:24:06.628Z,15.31
2022-10-30T03:25:06.636Z,15.40
2022-10-30T03:26:06.623Z,15.43
2022-10-30T03:27:06.620Z,15.44
2022-10-30T03:28:06.627Z,15.35
2022-10-30T03:29:06.626Z,15.39
2022-10-30T03:30:06.606Z,15.40
2022-10-30T03:31:06.612Z,15.43
2022-10-30T03:32:06.608Z,15.27
2022-10-30T03:33:06.601Z,15.37
2022-10-30T03:34:06.614Z,15.36
2022-10-30T03:35:06.623Z,15.43
2022-10-30T03:36:06.623Z,15.40
2022-10-30T03:37:06.593Z,15.40
2022-10-30T03:38:06.590Z,15.43
2022-10-30T03:39:06.583Z,15.36
2022-10-30T03:40:06.623Z,15.42
2022-10-30T03:41:06.595Z,15.39
2022-10-30T03:42:06.594Z,15.37
2022-10-30T03:43:06.579Z,15.40
2022-10-30T03:44:06.569Z,15.37
2022-10-30T03:45:06.582Z,15.36
2022-10-30T03:46:06.566Z,15.33
2022-10-30T03:47:06.610Z,15.39
2022-10-30T03:48:06.583Z,15.29
2022-10-30T03:49:06.562Z,15.42
2022-10-30T03:50:06.561Z,15.31
2022-10-30T03:51:06.630Z,15.39
2022-10-30T03:52:06.555Z,15.31
2022-10-30T03:53:06.568Z,15.28
2022-10-30T03:54:06.566Z,15.40
2022-10-30T03:55:06.550Z,15.42
2022-10-30T03:56:06.554Z,15.40
2022-10-30T03:57:06.550Z,15.39
2022-10-30T03:58:06.560Z,15.31
2022-10-30T03:59:06.538Z,15.43
2022-10-30T04:00:06.548Z,15.42
2022-10-30T04:01:06.583Z,15.36
2022-10-30T04:02:06.698Z,15.42
2022-10-30T04:03:06.542Z,15.36
2022-10-30T04:04:06.559Z,15.37
2022-10-30T04:05:06.530Z,15.35
2022-10-30T04:06:06.527Z,15.33
2022-10-30T04:07:06.531Z,15.43
2022-10-30T04:08:06.524Z,15.43
2022-10-30T04:09:06.529Z,15.37
2022-10-30T04:10:06.541Z,15.43
2022-10-30T04:11:06.569Z,15.40
2022-10-30T04:12:06.512Z,15.37
2022-10-30T04:13:06.519Z,15.37
2022-10-30T04:14:06.525Z,15.37
2022-10-30T04:15:06.518Z,15.37
2022-10-30T04:16:06.501Z,15.44
2022-10-30T04:17:06.630Z,15.39
2022-10-30T04:18:06.509Z,15.36
2022-10-30T04:19:06.492Z,15.35
2022-10-30T04:20:06.495Z,15.29
2022-10-30T04:21:06.489Z,15.35
2022-10-30T04:22:06.489Z,15.43
2022-10-30T04:23:06.495Z,15.42
2022-10-30T04:24:06.484Z,15.39
2022-10-30T04:25:06.490Z,15.36
2022-10-30T04:26:06.478Z,15.37
2022-10-30T04:27:06.478Z,15.42
2022-10-30T04:28:06.486Z,15.28
2022-10-30T04:29:06.485Z,15.47
2022-10-30T04:30:06.479Z,15.39
2022-10-30T04:31:06.470Z,15.35
2022-10-30T04:32:06.484Z,15.40
2022-10-30T04:33:06.473Z,15.29
2022-10-30T04:34:06.467Z,15.29
2022-10-30T04:35:06.501Z,15.29
2022-10-30T04:36:06.467Z,15.27
2022-10-30T04:37:06.466Z,15.27
2022-10-30T04:38:06.460Z,15.33
2022-10-30T04:39:06.475Z,15.31
2022-10-30T04:40:06.450Z,15.27
2022-10-30T04:41:06.491Z,15.35
2022-10-30T04:42:06.450Z,15.28
2022-10-30T04:43:06.454Z,15.33
2022-10-30T04:44:06.451Z,15.29
2022-10-30T04:45:11.148Z,15.35
2022-10-30T04:46:06.445Z,15.24
2022-10-30T04:47:06.440Z,15.37
2022-10-30T04:48:06.437Z,15.28
2022-10-30T04:49:06.445Z,15.27
2022-10-30T04:50:06.428Z,15.25
2022-10-30T04:51:06.431Z,15.25
2022-10-30T04:52:06.431Z,15.31
2022-10-30T04:53:06.430Z,15.28
2022-10-30T04:54:06.423Z,15.35
2022-10-30T04:55:06.437Z,15.33
2022-10-30T04:56:06.460Z,15.29
2022-10-30T04:57:06.425Z,15.31
2022-10-30T04:58:06.419Z,15.25
2022-10-30T04:59:06.412Z,15.21
2022-10-30T05:00:06.408Z,15.28
2022-10-30T05:01:06.464Z,15.27
2022-10-30T05:02:06.620Z,15.22
2022-10-30T05:03:06.411Z,15.28
2022-10-30T05:04:06.402Z,15.21
2022-10-30T05:05:06.430Z,15.22
2022-10-30T05:06:06.395Z,15.24
2022-10-30T05:07:06.406Z,15.19
2022-10-30T05:08:06.394Z,15.25
2022-10-30T05:09:06.392Z,15.29
2022-10-30T05:10:06.397Z,15.11
2022-10-30T05:11:06.388Z,15.25
2022-10-30T05:12:06.385Z,15.25
2022-10-30T05:13:06.555Z,15.24
2022-10-30T05:14:06.394Z,15.24
2022-10-30T05:15:06.386Z,15.24
2022-10-30T05:16:06.386Z,15.22
2022-10-30T05:17:06.373Z,15.24
2022-10-30T05:18:06.378Z,15.24
2022-10-30T05:19:06.373Z,15.22
2022-10-30T05:20:06.360Z,15.22
2022-10-30T05:21:06.366Z,15.22
2022-10-30T05:22:06.355Z,15.27
2022-10-30T05:23:06.357Z,15.29
2022-10-30T05:24:06.372Z,15.21
2022-10-30T05:25:06.360Z,15.19
2022-10-30T05:26:06.352Z,15.21
2022-10-30T05:27:06.357Z,15.29
2022-10-30T05:28:06.344Z,15.21
2022-10-30T05:29:06.351Z,15.25
2022-10-30T05:30:06.350Z,15.27
2022-10-30T05:31:06.343Z,15.31
2022-10-30T05:32:06.401Z,15.19
2022-10-30T05:33:06.334Z,15.17
2022-10-30T05:34:07.509Z,15.29
2022-10-30T05:35:06.344Z,15.28
2022-10-30T05:36:06.341Z,15.28
2022-10-30T05:37:06.325Z,15.24
2022-10-30T05:38:06.332Z,15.27
2022-10-30T05:39:06.336Z,15.25
2022-10-30T05:40:06.367Z,15.24
2022-10-30T05:41:06.326Z,15.18
2022-10-30T05:42:09.821Z,15.19
2022-10-30T05:43:06.309Z,15.14
2022-10-30T05:44:06.308Z,15.24
2022-10-30T05:45:06.322Z,15.09
2022-10-30T05:46:06.332Z,15.11
2022-10-30T05:47:06.307Z,15.11
2022-10-30T05:48:06.306Z,15.19
2022-10-30T05:49:06.309Z,15.15
2022-10-30T05:50:06.301Z,15.18
2022-10-30T05:51:06.383Z,15.17
2022-10-30T05:52:06.297Z,15.15
2022-10-30T05:53:06.291Z,15.19
2022-10-30T05:54:06.293Z,15.21
2022-10-30T05:55:06.283Z,15.19
2022-10-30T05:56:06.283Z,15.18
2022-10-30T05:57:06.286Z,15.18
2022-10-30T05:58:06.279Z,15.21
2022-10-30T05:59:06.277Z,15.15
2022-10-30T06:00:06.275Z,15.06
2022-10-30T06:01:06.275Z,15.14
2022-10-30T06:02:06.334Z,15.14
2022-10-30T06:03:06.327Z,15.17
2022-10-30T06:04:06.273Z,15.07
2022-10-30T06:05:06.259Z,15.11
2022-10-30T06:06:06.271Z,15.15
2022-10-30T06:07:06.268Z,15.11
2022-10-30T06:08:06.278Z,15.15
2022-10-30T06:09:06.255Z,15.09
2022-10-30T06:10:06.259Z,15.09
2022-10-30T06:11:06.273Z,15.15
2022-10-30T06:12:06.255Z,15.11
2022-10-30T06:13:06.320Z,15.06
2022-10-30T06:14:06.243Z,15.11
2022-10-30T06:15:06.243Z,15.07
2022-10-30T06:16:06.240Z,15.09
2022-10-30T06:17:06.252Z,15.15
2022-10-30T06:18:06.233Z,15.19
2022-10-30T06:19:06.250Z,15.17
2022-10-30T06:20:06.245Z,15.25
2022-10-30T06:21:06.231Z,15.18
2022-10-30T06:22:06.223Z,15.24
2022-10-30T06:23:06.225Z,15.22
2022-10-30T06:24:06.237Z,15.28
2022-10-30T06:25:06.244Z,15.31
2022-10-30T06:26:06.214Z,15.33
2022-10-30T06:27:06.214Z,15.28
2022-10-30T06:28:06.225Z,15.25
2022-10-30T06:29:06.217Z,15.28
2022-10-30T06:30:06.264Z,15.31
2022-10-30T06:31:06.267Z,15.25
2022-10-30T06:32:06.900Z,15.37
2022-10-30T06:33:06.203Z,15.29
2022-10-30T06:34:06.323Z,15.36
2022-10-30T06:35:06.203Z,15.29
2022-10-30T06:36:06.207Z,15.39
2022-10-30T06:37:06.300Z,15.40
2022-10-30T06:38:06.197Z,15.37
2022-10-30T06:39:06.193Z,15.36
2022-10-30T06:40:06.229Z,15.31
2022-10-30T06:41:06.310Z,15.46
2022-10-30T06:42:06.237Z,15.35
2022-10-30T06:43:06.213Z,15.31
2022-10-30T06:44:06.174Z,15.44
2022-10-30T06:45:06.175Z,15.51
2022-10-30T06:47:06.174Z,15.51
2022-10-30T06:48:06.177Z,15.49
2022-10-30T06:49:06.177Z,15.52
2022-10-30T06:50:06.179Z,15.52
2022-10-30T06:51:06.162Z,15.49
2022-10-30T06:52:06.225Z,15.54
2022-10-30T06:53:06.165Z,15.54
2022-10-30T06:54:06.157Z,15.54
2022-10-30T06:55:06.174Z,15.55
2022-10-30T06:56:06.147Z,15.52
2022-10-30T06:57:06.145Z,15.62
2022-10-30T06:58:06.153Z,15.61
2022-10-30T06:59:06.173Z,15.61
2022-10-30T07:00:06.156Z,15.61
2022-10-30T07:01:06.140Z,15.65
2022-10-30T07:02:08.543Z,15.59
2022-10-30T07:03:06.146Z,15.67
2022-10-30T07:04:06.148Z,15.57
2022-10-30T07:05:06.160Z,15.73
2022-10-30T07:06:06.131Z,15.70
2022-10-30T07:07:06.134Z,15.64
2022-10-30T07:08:06.139Z,15.68
2022-10-30T07:09:06.210Z,15.67
2022-10-30T07:10:06.133Z,15.76
2022-10-30T07:11:06.119Z,15.68
2022-10-30T07:12:07.212Z,15.72
2022-10-30T07:13:06.118Z,15.77
2022-10-30T07:14:06.115Z,15.76
2022-10-30T07:15:06.124Z,15.70
2022-10-30T07:16:06.112Z,15.76
2022-10-30T07:17:06.118Z,15.75
2022-10-30T07:18:06.109Z,15.76
2022-10-30T07:19:06.102Z,15.77
2022-10-30T07:20:06.135Z,15.73
2022-10-30T07:21:06.106Z,15.86
2022-10-30T07:22:06.102Z,15.80
2022-10-30T07:23:06.108Z,15.72
2022-10-30T07:24:06.106Z,15.75
2022-10-30T07:25:06.095Z,15.77
2022-10-30T07:26:06.106Z,15.79
2022-10-30T07:27:06.099Z,15.86
2022-10-30T07:28:06.096Z,15.91
2022-10-30T07:29:06.101Z,15.94
2022-10-30T07:30:06.108Z,15.88
2022-10-30T07:31:06.092Z,15.90
2022-10-30T07:32:06.095Z,15.86
2022-10-30T07:33:06.082Z,15.95
2022-10-30T07:34:06.075Z,16.01
2022-10-30T07:35:06.078Z,15.94
2022-10-30T07:36:06.108Z,15.98
2022-10-30T07:37:06.086Z,15.94
2022-10-30T07:38:06.090Z,15.95
2022-10-30T07:39:06.082Z,15.95
2022-10-30T07:40:09.996Z,15.98
2022-10-30T07:41:06.070Z,16.00
2022-10-30T07:42:06.082Z,15.98
2022-10-30T07:43:06.077Z,15.97
2022-10-30T07:44:06.076Z,16.04
2022-10-30T07:45:06.154Z,16.01
2022-10-30T07:46:06.066Z,16.09
2022-10-30T07:47:06.077Z,16.13
2022-10-30T07:48:06.079Z,16.24
2022-10-30T07:49:06.074Z,16.31
2022-10-30T07:50:06.072Z,16.43
2022-10-30T07:51:06.068Z,16.54
2022-10-30T07:52:06.062Z,16.66
2022-10-30T07:53:06.061Z,16.86
2022-10-30T07:54:06.068Z,16.94
2022-10-30T07:55:06.076Z,17.09
2022-10-30T07:56:06.067Z,17.36
2022-10-30T07:57:06.061Z,17.72
2022-10-30T07:58:06.096Z,18.01
2022-10-30T07:59:06.067Z,18.34
2022-10-30T08:00:06.075Z,18.59
2022-10-30T08:01:06.081Z,18.88
2022-10-30T08:02:06.221Z,19.04
2022-10-30T08:03:06.068Z,19.22
2022-10-30T08:04:06.069Z,19.30
2022-10-30T08:05:06.078Z,19.37
2022-10-30T08:06:06.107Z,19.36
2022-10-30T08:07:06.076Z,19.18
2022-10-30T08:08:06.084Z,19.02
2022-10-30T08:09:06.091Z,18.88
2022-10-30T08:10:06.084Z,18.75
2022-10-30T08:11:06.084Z,18.62
2022-10-30T08:12:06.119Z,18.41
2022-10-30T08:13:06.122Z,18.41
2022-10-30T08:14:06.107Z,18.31
2022-10-30T08:15:06.101Z,18.28
2022-10-30T08:16:06.138Z,18.19
2022-10-30T08:17:06.114Z,18.23
2022-10-30T08:18:06.125Z,18.16
2022-10-30T08:19:06.109Z,18.18
2022-10-30T08:20:06.115Z,18.28
2022-10-30T08:21:06.118Z,18.49
2022-10-30T08:22:06.104Z,18.47
2022-10-30T08:23:06.112Z,18.55
2022-10-30T08:24:06.143Z,18.63
2022-10-30T08:25:06.129Z,18.77
2022-10-30T08:26:06.119Z,18.77
2022-10-30T08:27:06.127Z,18.90
2022-10-30T08:28:06.130Z,18.88
2022-10-30T08:29:06.126Z,18.89
2022-10-30T08:30:06.123Z,18.86
2022-10-30T08:31:06.145Z,18.95
2022-10-30T08:32:06.139Z,18.89
2022-10-30T08:33:06.142Z,18.98
2022-10-30T08:34:06.149Z,19.00
2022-10-30T08:35:06.139Z,19.18
2022-10-30T08:36:06.180Z,19.34
2022-10-30T08:37:06.150Z,19.36
2022-10-30T08:38:06.159Z,19.48
2022-10-30T08:39:06.165Z,19.48
2022-10-30T08:40:06.159Z,19.62
2022-10-30T08:41:06.165Z,19.54
2022-10-30T08:42:06.164Z,19.62
2022-10-30T08:43:06.188Z,19.62
2022-10-30T08:44:06.185Z,19.63
2022-10-30T08:45:06.196Z,19.64
2022-10-30T08:46:06.185Z,19.69
2022-10-30T08:47:06.196Z,19.64
2022-10-30T08:48:06.190Z,19.64
2022-10-30T08:49:06.192Z,19.67
2022-10-30T08:50:06.234Z,19.64
2022-10-30T08:51:06.203Z,19.67
2022-10-30T08:52:06.211Z,19.69
2022-10-30T08:53:06.208Z,19.74
2022-10-30T08:54:06.226Z,19.70
2022-10-30T08:55:06.237Z,19.63
2022-10-30T08:56:06.228Z,19.62
2022-10-30T08:57:06.229Z,19.55
2022-10-30T08:58:06.224Z,19.70
2022-10-30T08:59:06.231Z,19.55
2022-10-30T09:00:06.235Z,19.56
2022-10-30T09:01:06.312Z,19.64
2022-10-30T09:02:06.329Z,19.49
2022-10-30T09:03:06.255Z,19.52
2022-10-30T09:04:06.257Z,19.49
2022-10-30T09:06:06.266Z,19.49
2022-10-30T09:07:08.875Z,19.56
2022-10-30T09:08:06.280Z,19.55
2022-10-30T09:09:06.278Z,19.55
2022-10-30T09:10:06.281Z,19.63
2022-10-30T09:11:06.275Z,19.58
2022-10-30T09:12:06.285Z,19.52
2022-10-30T09:13:06.324Z,19.59
2022-10-30T09:14:06.297Z,19.56
2022-10-30T09:15:06.297Z,19.51
2022-10-30T09:16:06.300Z,19.48
2022-10-30T09:17:06.301Z,19.51
2022-10-30T09:18:06.307Z,19.59
2022-10-30T09:19:06.311Z,19.56
2022-10-30T09:20:06.323Z,19.63
2022-10-30T09:21:06.315Z,19.49
2022-10-30T09:22:06.318Z,19.62
2022-10-30T09:23:06.317Z,19.63
2022-10-30T09:24:06.320Z,19.56
2022-10-30T09:25:06.325Z,19.64
2022-10-30T09:26:06.328Z,19.67
2022-10-30T09:27:06.325Z,19.74
2022-10-30T09:28:06.340Z,19.66
2022-10-30T09:29:06.342Z,19.62
2022-10-30T09:30:06.353Z,19.74
2022-10-30T09:31:06.347Z,19.69
2022-10-30T09:32:06.338Z,19.74
2022-10-30T09:33:06.362Z,19.73
2022-10-30T09:34:06.356Z,19.76
2022-10-30T09:35:06.366Z,19.69
2022-10-30T09:36:06.348Z,19.77
2022-10-30T09:37:06.357Z,19.77
2022-10-30T09:38:06.360Z,19.89
2022-10-30T09:39:06.364Z,19.86
2022-10-30T09:40:06.438Z,19.91
2022-10-30T09:41:06.351Z,19.95
2022-10-30T09:42:06.399Z,19.92
2022-10-30T09:43:06.361Z,20.02
2022-10-30T09:44:06.373Z,20.02
2022-10-30T09:45:27.795Z,20.03
2022-10-30T09:46:06.359Z,20.10
2022-10-30T09:47:06.370Z,20.14
2022-10-30T09:48:06.365Z,20.18
2022-10-30T09:49:06.395Z,20.21
2022-10-30T09:50:06.371Z,20.10
2022-10-30T09:51:06.390Z,20.18
2022-10-30T09:52:06.372Z,20.34
2022-10-30T09:53:06.391Z,20.25
2022-10-30T09:54:06.385Z,20.31
2022-10-30T09:55:06.391Z,20.31
2022-10-30T09:56:06.429Z,20.26
2022-10-30T09:57:06.393Z,20.25
2022-10-30T09:58:06.416Z,20.22
2022-10-30T09:59:06.404Z,20.31
2022-10-30T10:00:06.438Z,20.34
2022-10-30T10:01:07.400Z,20.32
2022-10-30T10:02:06.590Z,20.36
2022-10-30T10:03:06.459Z,20.28
2022-10-30T10:04:06.442Z,20.24
2022-10-30T10:05:06.407Z,20.14
2022-10-30T10:06:06.406Z,20.18
2022-10-30T10:07:06.404Z,20.14
2022-10-30T10:08:06.417Z,20.09
2022-10-30T10:09:06.409Z,20.03
2022-10-30T10:10:06.429Z,20.09
2022-10-30T10:11:06.403Z,20.03
2022-10-30T10:12:06.426Z,20.13
2022-10-30T10:13:06.832Z,19.92
2022-10-30T10:14:06.421Z,20.00
2022-10-30T10:15:06.417Z,19.88
2022-10-30T10:16:06.419Z,19.89
2022-10-30T10:17:06.416Z,19.86
2022-10-30T10:18:06.417Z,19.88
2022-10-30T10:19:06.412Z,19.88
2022-10-30T10:20:06.421Z,19.88
2022-10-30T10:21:06.437Z,19.82
2022-10-30T10:22:06.430Z,19.77
2022-10-30T10:23:06.438Z,19.85
2022-10-30T10:24:06.438Z,19.77
2022-10-30T10:25:06.430Z,19.79
2022-10-30T10:26:06.440Z,19.81
2022-10-30T10:27:06.423Z,19.79
2022-10-30T10:28:06.445Z,19.71
2022-10-30T10:29:06.433Z,19.84
2022-10-30T10:30:06.554Z,19.73
2022-10-30T10:31:06.431Z,19.74
2022-10-30T10:32:06.457Z,19.74
2022-10-30T10:33:06.440Z,19.82
2022-10-30T10:34:06.457Z,19.82
2022-10-30T10:35:06.444Z,19.66
2022-10-30T10:36:06.446Z,19.67
2022-10-30T10:37:06.461Z,19.73
2022-10-30T10:38:06.448Z,19.62
2022-10-30T10:39:06.455Z,19.74
2022-10-30T10:40:06.455Z,19.63
2022-10-30T10:41:06.450Z,19.58
2022-10-30T10:42:06.459Z,19.81
2022-10-30T10:43:06.468Z,19.73
2022-10-30T10:44:06.458Z,19.71
2022-10-30T10:45:06.445Z,19.67
2022-10-30T10:46:06.467Z,19.71
2022-10-30T10:47:07.553Z,19.66
2022-10-30T10:48:06.495Z,19.74
2022-10-30T10:49:06.489Z,19.70
2022-10-30T10:50:06.469Z,19.66
2022-10-30T10:51:06.475Z,19.73
2022-10-30T10:52:06.466Z,19.69
2022-10-30T10:53:06.459Z,19.73
2022-10-30T10:54:06.467Z,19.62
2022-10-30T10:55:06.477Z,19.64
2022-10-30T10:56:06.463Z,19.69
2022-10-30T10:57:06.477Z,19.71
2022-10-30T10:58:06.476Z,19.77
2022-10-30T10:59:06.468Z,19.71
2022-10-30T11:00:06.470Z,19.79
2022-10-30T11:01:06.509Z,19.76
2022-10-30T11:02:06.589Z,19.81
2022-10-30T11:03:06.568Z,19.85
2022-10-30T11:04:06.477Z,19.76
2022-10-30T11:05:06.479Z,19.69
2022-10-30T11:06:06.491Z,19.79
2022-10-30T11:07:06.488Z,19.82
2022-10-30T11:08:06.493Z,19.81
2022-10-30T11:09:06.492Z,19.86
2022-10-30T11:10:06.491Z,19.88
2022-10-30T11:11:06.492Z,19.81
2022-10-30T11:12:06.489Z,19.81
2022-10-30T11:13:06.573Z,19.76
2022-10-30T11:14:06.497Z,19.77
2022-10-30T11:15:06.512Z,19.84
2022-10-30T11:16:06.517Z,19.88
2022-10-30T11:17:06.515Z,19.76
2022-10-30T11:19:06.500Z,19.86
2022-10-30T11:20:06.500Z,19.86
2022-10-30T11:21:06.503Z,19.88
2022-10-30T11:22:06.497Z,19.88
2022-10-30T11:23:06.506Z,19.91
2022-10-30T11:24:06.503Z,19.91
2022-10-30T11:25:06.511Z,19.88
2022-10-30T11:26:06.513Z,19.86
2022-10-30T11:27:06.516Z,19.85
2022-10-30T11:28:06.509Z,19.89
2022-10-30T11:29:06.511Z,19.89
2022-10-30T11:30:06.518Z,19.94
2022-10-30T11:31:06.509Z,19.94
2022-10-30T11:32:06.514Z,19.88
2022-10-30T11:33:06.540Z,20.07
2022-10-30T11:34:06.523Z,20.02
2022-10-30T11:35:06.515Z,19.94
2022-10-30T11:36:10.305Z,20.06
2022-10-30T11:37:06.536Z,20.03
2022-10-30T11:38:06.525Z,20.03
2022-10-30T11:39:06.519Z,19.91
2022-10-30T11:40:06.532Z,19.91
2022-10-30T11:41:06.528Z,20.04
2022-10-30T11:42:06.531Z,19.95
2022-10-30T11:43:06.533Z,20.06
2022-10-30T11:44:06.526Z,19.92
2022-10-30T11:45:06.533Z,20.02
2022-10-30T11:46:06.529Z,20.03
2022-10-30T11:47:06.541Z,20.02
2022-10-30T11:48:10.640Z,19.96
2022-10-30T11:49:06.538Z,19.99
2022-10-30T11:50:06.541Z,20.06
2022-10-30T11:51:06.574Z,19.95
2022-10-30T11:52:06.540Z,20.06
2022-10-30T11:53:06.570Z,20.06
2022-10-30T11:54:06.554Z,20.07
2022-10-30T11:55:06.553Z,20.03
2022-10-30T11:56:06.543Z,20.07
2022-10-30T11:57:06.542Z,20.13
2022-10-30T11:58:06.547Z,20.18
2022-10-30T11:59:06.561Z,20.09
2022-10-30T12:00:06.556Z,20.04
2022-10-30T12:01:06.563Z,20.09
2022-10-30T12:02:06.671Z,20.07
2022-10-30T12:03:06.565Z,20.09
2022-10-30T12:04:06.567Z,20.14
2022-10-30T12:05:06.563Z,20.11
2022-10-30T12:06:06.560Z,20.14
2022-10-30T12:07:06.602Z,20.11
2022-10-30T12:08:06.586Z,20.14
2022-10-30T12:09:06.604Z,20.13
2022-10-30T12:10:06.578Z,20.21
2022-10-30T12:11:06.600Z,20.26
2022-10-30T12:12:06.879Z,20.28
2022-10-30T12:13:06.576Z,20.31
2022-10-30T12:14:06.591Z,20.11
2022-10-30T12:15:06.582Z,20.25
2022-10-30T12:16:06.579Z,20.18
2022-10-30T12:17:06.583Z,20.18
2022-10-30T12:18:06.574Z,20.24
2022-10-30T12:19:06.579Z,20.18
2022-10-30T12:20:06.578Z,20.24
2022-10-30T12:21:06.585Z,20.14
2022-10-30T12:22:09.758Z,20.26
2022-10-30T12:23:06.600Z,20.19
2022-10-30T12:24:06.596Z,20.22
2022-10-30T12:25:06.602Z,20.16
2022-10-30T12:26:06.592Z,20.16
2022-10-30T12:27:06.599Z,20.31
2022-10-30T12:28:06.607Z,20.24
2022-10-30T12:29:06.606Z,20.25
2022-10-30T12:30:09.290Z,20.25
2022-10-30T12:31:06.639Z,20.25
2022-10-30T12:32:06.604Z,20.26
2022-10-30T12:33:06.607Z,20.32
2022-10-30T12:34:06.646Z,20.24
2022-10-30T12:35:06.633Z,20.22
2022-10-30T12:36:06.600Z,20.31
2022-10-30T12:37:06.608Z,20.32
2022-10-30T12:38:06.608Z,20.29
2022-10-30T12:39:06.626Z,20.31
2022-10-30T12:40:06.608Z,20.32
2022-10-30T12:41:06.620Z,20.29
2022-10-30T12:42:06.619Z,20.40
2022-10-30T12:43:06.634Z,20.31
2022-10-30T12:44:06.627Z,20.25
2022-10-30T12:45:06.649Z,20.26
2022-10-30T12:46:06.646Z,20.37
2022-10-30T12:47:06.618Z,20.32
2022-10-30T12:48:06.641Z,20.41
2022-10-30T12:49:06.651Z,20.37
2022-10-30T12:50:06.693Z,20.40
2022-10-30T12:51:06.632Z,20.36
2022-10-30T12:52:06.626Z,20.41
2022-10-30T12:53:06.636Z,20.43
2022-10-30T12:54:06.636Z,20.39
2022-10-30T12:55:06.632Z,20.31